Time;durP1;ratioP1;P1;durP2;ratioP2;P2;SDS_P1;SDS_P2;PMS_P1;PMS_P2;Temp;Humidity;BMP_temperature;BMP_pressure;BME280_temperature;BME280_humidity;BME280_pressure;Samples;Min_cycle;Max_cycle;Signal;HPM_P1;HPM_P2
2022/05/05 00:00:59;;;;;;;7.25;4.57;;;11.40;99.90;;;;;;5048266;28;20096;-54
2022/05/05 00:03:26;;;;;;;7.82;5.28;;;11.40;99.90;;;;;;5048638;28;20045;-54
2022/05/05 00:05:54;;;;;;;7.03;4.95;;;11.40;99.90;;;;;;5048494;28;20140;-56
2022/05/05 00:08:21;;;;;;;5.85;4.88;;;11.40;99.90;;;;;;5048626;28;20124;-54
2022/05/05 00:16:19;;;;;;;11.48;5.22;;;11.20;99.90;;;;;;5048466;28;20141;-57
2022/05/05 00:18:46;;;;;;;6.50;5.22;;;11.20;99.90;;;;;;5047947;28;20049;-57
2022/05/05 00:21:12;;;;;;;5.88;4.90;;;11.20;99.90;;;;;;5047146;28;20076;-55
2022/05/05 00:23:39;;;;;;;6.32;5.13;;;11.20;99.90;;;;;;5048536;28;20055;-53
2022/05/05 00:26:06;;;;;;;7.18;4.93;;;11.20;99.90;;;;;;5041155;28;20133;-55
2022/05/05 00:28:32;;;;;;;9.73;5.47;;;11.20;99.90;;;;;;5044617;28;20124;-57
2022/05/05 00:30:59;;;;;;;8.88;5.03;;;11.10;99.90;;;;;;5049822;28;20581;-57
2022/05/05 00:33:26;;;;;;;11.43;4.72;;;11.10;99.90;;;;;;5049242;28;20516;-56
2022/05/05 00:35:53;;;;;;;6.35;4.50;;;11.10;99.90;;;;;;5049697;28;20091;-57
2022/05/05 00:38:20;;;;;;;5.95;4.43;;;11.10;99.90;;;;;;5049533;28;20144;-56
2022/05/05 00:40:47;;;;;;;6.70;4.82;;;11.00;99.90;;;;;;5049258;28;20135;-55
2022/05/05 00:43:13;;;;;;;5.25;4.63;;;11.00;99.90;;;;;;5048696;28;20140;-53
2022/05/05 00:45:40;;;;;;;7.18;5.88;;;11.00;99.90;;;;;;5047559;28;20041;-58
2022/05/05 00:48:08;;;;;;;9.80;5.40;;;11.00;99.90;;;;;;5048324;28;20054;-55
2022/05/05 00:50:36;;;;;;;9.70;6.63;;;11.00;99.90;;;;;;5049490;28;20126;-55
2022/05/05 00:53:03;;;;;;;5.18;4.45;;;11.00;99.90;;;;;;5048693;28;20048;-57
2022/05/05 00:55:37;;;;;;;7.20;5.00;;;10.90;99.90;;;;;;5046978;28;20084;-55
2022/05/05 00:58:04;;;;;;;8.68;4.65;;;10.90;99.90;;;;;;5049257;28;20172;-55
2022/05/05 01:00:34;;;;;;;5.15;4.50;;;10.90;99.90;;;;;;5048420;28;20073;-55
2022/05/05 01:03:01;;;;;;;6.70;4.72;;;10.90;99.90;;;;;;5046830;28;20081;-54
2022/05/05 01:05:28;;;;;;;7.10;5.07;;;10.90;99.90;;;;;;5049008;28;20460;-55
2022/05/05 01:07:58;;;;;;;7.32;5.53;;;10.80;99.90;;;;;;5048602;28;20507;-55
2022/05/05 01:10:25;;;;;;;6.40;5.32;;;10.80;99.90;;;;;;5048431;28;20076;-55
2022/05/05 01:12:52;;;;;;;6.20;5.05;;;10.70;99.90;;;;;;5048480;28;20425;-56
2022/05/05 01:15:20;;;;;;;6.80;5.10;;;10.70;99.90;;;;;;5047501;28;20617;-55
2022/05/05 01:17:47;;;;;;;6.13;4.82;;;10.70;99.90;;;;;;5048000;28;20045;-55
2022/05/05 01:20:15;;;;;;;7.30;4.82;;;10.60;99.90;;;;;;5043449;28;20049;-55
2022/05/05 01:22:42;;;;;;;10.77;5.80;;;10.60;99.90;;;;;;5047882;28;20104;-54
2022/05/05 01:28:12;;;;;;;7.43;6.07;;;10.40;99.90;;;;;;5048528;28;20087;-54
2022/05/05 01:30:43;;;;;;;9.55;6.50;;;10.40;99.90;;;;;;5048322;28;20131;-54
2022/05/05 01:33:12;;;;;;;6.65;4.88;;;10.40;99.90;;;;;;5047683;28;20047;-53
2022/05/05 01:35:39;;;;;;;6.70;5.55;;;10.40;99.90;;;;;;5048205;28;20579;-56
2022/05/05 01:38:10;;;;;;;8.23;5.80;;;10.40;99.90;;;;;;5044248;28;20512;-57
2022/05/05 01:40:37;;;;;;;6.63;4.95;;;10.40;99.90;;;;;;4697947;27;10000288;-56
2022/05/05 01:43:04;;;;;;;8.05;5.93;;;10.30;99.90;;;;;;5047704;28;20132;-57
2022/05/05 01:45:31;;;;;;;9.20;6.50;;;10.30;99.90;;;;;;5046630;28;20041;-56
2022/05/05 01:47:58;;;;;;;9.10;5.18;;;10.30;99.90;;;;;;5047869;28;20075;-56
2022/05/05 01:50:25;;;;;;;6.95;5.55;;;10.20;99.90;;;;;;5044472;28;20081;-55
2022/05/05 01:52:53;;;;;;;7.10;6.00;;;10.20;99.90;;;;;;5047577;28;20053;-53
2022/05/05 01:55:21;;;;;;;11.05;6.30;;;10.20;99.90;;;;;;5046200;28;20690;-55
2022/05/05 01:57:48;;;;;;;6.75;5.80;;;10.20;99.90;;;;;;5047604;28;20128;-54
2022/05/05 02:00:15;;;;;;;7.50;4.95;;;10.20;99.90;;;;;;5047486;28;20080;-53
2022/05/05 02:02:45;;;;;;;7.68;6.05;;;10.10;99.90;;;;;;5047096;28;20092;-55
2022/05/05 02:05:13;;;;;;;13.07;6.30;;;10.10;99.90;;;;;;5047652;28;20107;-54
2022/05/05 02:07:40;;;;;;;8.15;5.78;;;10.00;99.90;;;;;;5048090;28;20045;-53
2022/05/05 02:10:08;;;;;;;8.77;5.93;;;10.00;99.90;;;;;;5047783;28;20107;-51
2022/05/05 02:12:36;;;;;;;8.00;6.38;;;10.00;99.90;;;;;;5046611;28;20531;-53
2022/05/05 02:15:06;;;;;;;7.32;5.70;;;9.90;99.90;;;;;;5047670;28;20072;-53
2022/05/05 02:17:40;;;;;;;7.20;6.05;;;9.90;99.90;;;;;;5045352;28;20510;-51
2022/05/05 02:20:08;;;;;;;8.43;5.05;;;9.90;99.90;;;;;;5045810;28;20045;-56
2022/05/05 02:22:35;;;;;;;8.25;6.13;;;9.90;99.90;;;;;;5045093;28;20098;-53
2022/05/05 02:25:02;;;;;;;7.53;5.30;;;9.80;99.90;;;;;;5047300;28;20114;-53
2022/05/05 02:27:29;;;;;;;8.60;6.18;;;9.80;99.90;;;;;;5046778;28;20107;-54
2022/05/05 02:29:58;;;;;;;9.02;5.88;;;9.70;99.90;;;;;;5047228;28;20179;-53
2022/05/05 02:32:25;;;;;;;8.38;5.47;;;9.70;99.90;;;;;;5046817;28;20514;-55
2022/05/05 02:34:51;;;;;;;10.63;5.47;;;9.70;99.90;;;;;;5047424;28;20044;-55
2022/05/05 02:40:04;;;;;;;6.47;5.15;;;9.70;99.90;;;;;;5046998;28;20084;-56
2022/05/05 02:42:31;;;;;;;7.78;5.97;;;9.60;99.90;;;;;;5046397;28;20076;-55
2022/05/05 02:44:58;;;;;;;9.38;5.75;;;9.60;99.90;;;;;;5046900;28;20129;-56
2022/05/05 02:47:25;;;;;;;7.95;5.85;;;9.60;99.90;;;;;;5046998;28;20128;-54
2022/05/05 02:49:51;;;;;;;11.32;5.65;;;9.60;99.90;;;;;;5046717;28;20080;-54
2022/05/05 02:52:18;;;;;;;10.40;5.50;;;9.60;99.90;;;;;;5045153;28;20063;-56
2022/05/05 02:54:50;;;;;;;8.70;5.47;;;9.60;99.90;;;;;;5047342;28;20083;-54
2022/05/05 02:57:18;;;;;;;9.35;5.30;;;9.60;99.90;;;;;;5047177;28;20049;-55
2022/05/05 02:59:45;;;;;;;11.30;6.40;;;9.60;99.90;;;;;;5047122;28;20132;-56
2022/05/05 03:02:11;;;;;;;7.40;5.00;;;9.60;99.90;;;;;;5046675;28;20495;-55
2022/05/05 03:04:38;;;;;;;11.20;5.15;;;9.70;99.90;;;;;;5047024;28;20141;-56
2022/05/05 03:07:05;;;;;;;11.73;6.20;;;9.60;99.90;;;;;;5046384;28;20045;-56
2022/05/05 03:09:31;;;;;;;9.40;5.95;;;9.60;99.90;;;;;;5045883;28;20047;-56
2022/05/05 03:11:58;;;;;;;14.00;5.63;;;9.70;99.90;;;;;;5046908;28;20056;-55
2022/05/05 03:14:25;;;;;;;8.65;5.43;;;9.60;99.90;;;;;;5046721;28;20514;-55
2022/05/05 03:16:52;;;;;;;8.02;6.30;;;9.60;99.90;;;;;;5047170;28;20092;-55
2022/05/05 03:19:18;;;;;;;8.82;5.05;;;9.60;99.90;;;;;;5045496;28;20128;-55
2022/05/05 03:21:45;;;;;;;8.23;5.75;;;9.60;99.90;;;;;;5045881;28;20048;-55
2022/05/05 03:24:12;;;;;;;8.60;6.05;;;9.60;99.90;;;;;;5047455;28;20132;-56
2022/05/05 03:26:39;;;;;;;7.28;6.20;;;9.60;99.90;;;;;;5050739;28;20084;-55
2022/05/05 03:29:05;;;;;;;6.28;5.03;;;9.50;99.90;;;;;;5050375;28;20045;-54
2022/05/05 03:31:32;;;;;;;8.02;5.35;;;9.50;99.90;;;;;;5050594;28;20128;-56
2022/05/05 03:33:59;;;;;;;8.32;5.80;;;9.50;99.90;;;;;;5050578;28;20080;-52
2022/05/05 03:36:26;;;;;;;8.55;5.57;;;9.40;99.90;;;;;;5050854;28;20076;-53
2022/05/05 03:38:54;;;;;;;8.25;5.82;;;9.40;99.90;;;;;;5050046;28;20079;-54
2022/05/05 03:41:21;;;;;;;7.88;5.90;;;9.40;99.90;;;;;;5050427;28;20424;-55
2022/05/05 03:43:48;;;;;;;9.10;6.43;;;9.30;99.90;;;;;;5050036;28;20124;-56
2022/05/05 03:46:14;;;;;;;8.18;6.00;;;9.30;99.90;;;;;;5050277;28;20140;-53
2022/05/05 03:48:41;;;;;;;9.65;5.63;;;9.20;99.90;;;;;;5050013;28;20056;-55
2022/05/05 03:51:08;;;;;;;9.13;6.20;;;9.20;99.90;;;;;;5050593;28;20563;-54
2022/05/05 03:53:35;;;;;;;9.75;6.18;;;9.20;99.90;;;;;;5030454;28;20045;-56
2022/05/05 03:56:02;;;;;;;9.18;6.22;;;9.10;99.90;;;;;;5050043;28;20080;-55
2022/05/05 03:58:29;;;;;;;13.50;5.97;;;9.10;99.90;;;;;;5050165;28;20148;-56
2022/05/05 04:00:56;;;;;;;8.68;5.95;;;9.00;99.90;;;;;;5049404;28;20140;-56
2022/05/05 04:03:32;;;;;;;11.23;6.47;;;9.00;99.90;;;;;;5030508;28;20132;-54
2022/05/05 04:06:01;;;;;;;9.38;6.38;;;9.00;99.90;;;;;;5047267;28;20060;-54
2022/05/05 04:08:28;;;;;;;12.55;7.25;;;9.00;99.90;;;;;;5050016;28;20566;-54
2022/05/05 04:10:55;;;;;;;9.68;6.75;;;8.90;99.90;;;;;;5049238;28;20093;-55
2022/05/05 04:13:22;;;;;;;9.32;6.38;;;8.90;99.90;;;;;;5049580;28;20425;-53
2022/05/05 04:15:48;;;;;;;12.55;6.82;;;8.90;99.90;;;;;;5049637;28;20041;-56
2022/05/05 04:18:15;;;;;;;8.88;6.63;;;8.90;99.90;;;;;;5049920;28;20131;-56
2022/05/05 04:20:42;;;;;;;9.23;6.93;;;8.80;99.90;;;;;;5049470;28;20477;-56
2022/05/05 04:23:09;;;;;;;13.15;6.60;;;8.80;99.90;;;;;;5048772;28;20045;-55
2022/05/05 04:25:56;;;;;;;10.88;6.60;;;8.70;99.90;;;;;;5049098;28;20477;-55
2022/05/05 04:28:23;;;;;;;9.70;6.55;;;8.70;99.90;;;;;;5049947;28;20519;-56
2022/05/05 04:30:49;;;;;;;13.32;7.75;;;8.70;99.90;;;;;;5047941;28;20187;-55
2022/05/05 04:33:16;;;;;;;9.25;6.68;;;8.80;99.90;;;;;;5049524;28;20049;-51
2022/05/05 04:35:43;;;;;;;9.80;6.85;;;8.80;99.90;;;;;;5048193;28;20135;-50
2022/05/05 04:38:10;;;;;;;10.02;7.10;;;8.80;99.90;;;;;;5031827;28;20131;-51
2022/05/05 04:40:37;;;;;;;11.52;5.88;;;8.80;99.90;;;;;;5047569;28;20072;-55
2022/05/05 04:43:03;;;;;;;12.90;7.30;;;8.80;99.90;;;;;;5049551;28;20079;-55
2022/05/05 04:45:30;;;;;;;9.98;6.88;;;8.80;99.90;;;;;;5049306;28;20136;-54
2022/05/05 04:47:58;;;;;;;10.32;7.70;;;8.70;99.90;;;;;;5045499;28;20511;-53
2022/05/05 04:50:25;;;;;;;12.80;7.07;;;8.70;99.90;;;;;;5049273;28;20139;-55
2022/05/05 04:52:51;;;;;;;9.20;6.50;;;8.70;99.90;;;;;;5048117;28;20575;-54
2022/05/05 04:55:18;;;;;;;9.95;5.60;;;8.80;99.90;;;;;;5048600;28;20088;-53
2022/05/05 04:57:45;;;;;;;18.88;7.47;;;8.70;99.90;;;;;;5047852;28;20152;-54
2022/05/05 05:00:12;;;;;;;17.20;8.48;;;8.80;99.90;;;;;;5049136;28;20080;-57
2022/05/05 05:02:39;;;;;;;10.48;7.68;;;8.80;99.90;;;;;;5048053;28;20083;-53
2022/05/05 05:05:06;;;;;;;10.75;6.93;;;8.90;99.90;;;;;;5049223;28;20049;-56
2022/05/05 05:07:33;;;;;;;11.15;6.72;;;8.80;99.90;;;;;;5048867;28;20143;-54
2022/05/05 05:10:00;;;;;;;11.65;7.35;;;8.80;99.90;;;;;;5049263;28;20141;-55
2022/05/05 05:12:27;;;;;;;14.82;7.70;;;8.80;99.90;;;;;;5047290;28;20492;-56
2022/05/05 05:14:53;;;;;;;12.88;7.00;;;8.80;99.90;;;;;;5048010;28;20530;-55
2022/05/05 05:17:21;;;;;;;18.80;7.82;;;8.90;99.90;;;;;;5046901;28;20053;-56
2022/05/05 05:19:47;;;;;;;11.57;7.93;;;8.90;99.90;;;;;;5048617;28;20539;-54
2022/05/05 05:22:14;;;;;;;8.98;7.20;;;9.00;99.90;;;;;;5048115;28;20047;-55
2022/05/05 05:24:41;;;;;;;18.95;8.57;;;9.00;99.90;;;;;;5048513;28;20137;-56
2022/05/05 05:27:08;;;;;;;19.10;8.80;;;8.90;99.90;;;;;;5048335;28;20140;-57
2022/05/05 05:29:35;;;;;;;13.02;7.90;;;9.00;99.90;;;;;;5048765;28;20053;-55
2022/05/05 05:32:02;;;;;;;11.93;7.82;;;9.00;99.90;;;;;;5048291;28;20095;-55
2022/05/05 05:34:28;;;;;;;11.82;6.70;;;9.10;99.90;;;;;;5047944;28;20492;-55
2022/05/05 05:36:55;;;;;;;13.73;9.55;;;9.20;99.90;;;;;;5047598;28;20136;-57
2022/05/05 05:39:22;;;;;;;11.45;8.05;;;9.20;99.90;;;;;;5047524;28;20604;-58
2022/05/05 05:41:49;;;;;;;17.10;7.65;;;9.30;99.90;;;;;;5044488;28;20089;-55
2022/05/05 05:44:16;;;;;;;14.75;7.70;;;9.40;99.90;;;;;;5047045;28;20041;-56
2022/05/05 05:46:42;;;;;;;16.80;9.95;;;9.40;99.90;;;;;;5047348;28;20041;-55
2022/05/05 05:49:09;;;;;;;21.98;7.45;;;9.50;99.90;;;;;;5047901;28;20148;-56
2022/05/05 05:51:36;;;;;;;22.52;8.95;;;9.60;99.90;;;;;;5047762;28;20073;-56
2022/05/05 05:54:03;;;;;;;14.52;8.00;;;9.60;99.90;;;;;;5046393;28;20084;-55
2022/05/05 05:56:31;;;;;;;21.20;7.70;;;9.70;99.90;;;;;;5047545;28;20110;-54
2022/05/05 05:59:01;;;;;;;18.38;8.13;;;9.70;99.90;;;;;;5047853;28;20049;-55
2022/05/05 06:04:13;;;;;;;12.98;7.35;;;10.00;99.90;;;;;;5047914;28;20045;-56
2022/05/05 06:06:41;;;;;;;12.52;7.85;;;10.10;99.90;;;;;;5047548;28;20137;-60
2022/05/05 06:09:08;;;;;;;11.63;7.00;;;10.10;99.90;;;;;;5047130;28;20098;-53
2022/05/05 06:11:35;;;;;;;14.95;8.63;;;10.10;99.90;;;;;;5047258;28;20527;-53
2022/05/05 06:14:04;;;;;;;13.05;8.32;;;10.20;99.90;;;;;;5047274;28;20083;-57
2022/05/05 06:16:31;;;;;;;13.88;8.23;;;10.20;99.90;;;;;;5047291;28;20055;-53
2022/05/05 06:18:58;;;;;;;10.82;8.10;;;10.30;99.90;;;;;;5046449;28;20067;-55
2022/05/05 06:21:25;;;;;;;10.25;7.50;;;10.40;99.90;;;;;;5045012;28;20155;-56
2022/05/05 06:23:52;;;;;;;15.25;7.32;;;10.50;99.90;;;;;;5047084;28;20057;-54
2022/05/05 06:26:19;;;;;;;19.55;7.68;;;10.60;99.90;;;;;;5046716;28;20132;-56
2022/05/05 06:28:45;;;;;;;14.77;7.40;;;10.70;99.90;;;;;;5047212;28;20072;-55
2022/05/05 06:31:12;;;;;;;14.27;6.68;;;10.80;99.90;;;;;;5046799;28;20041;-56
2022/05/05 06:33:39;;;;;;;12.80;7.95;;;10.90;99.90;;;;;;5046887;28;20057;-57
2022/05/05 06:36:06;;;;;;;15.68;7.18;;;10.90;99.90;;;;;;5046430;28;20107;-56
2022/05/05 06:38:33;;;;;;;11.30;7.72;;;10.90;99.90;;;;;;5029670;28;20465;-56
2022/05/05 06:41:00;;;;;;;16.52;7.43;;;10.90;99.90;;;;;;5042003;28;20047;-55
2022/05/05 06:43:27;;;;;;;16.67;8.30;;;11.00;99.90;;;;;;5044129;28;20041;-57
2022/05/05 06:45:54;;;;;;;12.82;6.95;;;11.10;99.90;;;;;;5045334;28;20041;-57
2022/05/05 06:48:21;;;;;;;19.10;6.85;;;11.00;99.90;;;;;;5042865;28;20045;-55
2022/05/05 06:50:48;;;;;;;16.65;7.70;;;11.00;99.90;;;;;;5044069;28;20044;-54
2022/05/05 06:53:15;;;;;;;14.82;6.85;;;11.10;99.90;;;;;;5043141;28;20079;-53
2022/05/05 06:55:41;;;;;;;18.38;7.25;;;11.10;99.90;;;;;;5042229;28;20079;-55
2022/05/05 06:58:08;;;;;;;9.63;6.65;;;11.20;99.90;;;;;;5041499;28;20057;-53
2022/05/05 07:03:21;;;;;;;16.58;7.68;;;11.30;99.90;;;;;;5047822;28;20041;-57
2022/05/05 07:05:48;;;;;;;12.80;6.57;;;11.30;99.90;;;;;;5047937;28;20081;-55
2022/05/05 07:08:15;;;;;;;9.73;6.45;;;11.30;99.90;;;;;;5048967;28;20084;-56
2022/05/05 07:10:54;;;;;;;10.20;6.63;;;11.30;99.90;;;;;;5049627;28;20122;-55
2022/05/05 07:13:24;;;;;;;16.10;6.90;;;11.50;99.90;;;;;;5048512;28;20195;-55
2022/05/05 07:15:51;;;;;;;11.68;7.07;;;11.50;99.90;;;;;;5049924;28;20132;-52
2022/05/05 07:18:18;;;;;;;14.95;7.13;;;11.60;99.90;;;;;;5050284;28;20041;-54
2022/05/05 07:20:45;;;;;;;10.48;6.50;;;11.70;99.90;;;;;;5049376;28;20049;-56
2022/05/05 07:23:12;;;;;;;10.52;5.90;;;11.70;99.90;;;;;;5049821;28;20144;-53
2022/05/05 07:25:42;;;;;;;9.95;5.75;;;11.70;99.90;;;;;;5049810;28;20049;-55
2022/05/05 07:28:09;;;;;;;15.82;6.45;;;11.70;99.90;;;;;;5048477;28;20076;-55
2022/05/05 07:30:36;;;;;;;12.55;6.47;;;11.70;99.90;;;;;;5049928;28;20072;-55
2022/05/05 07:33:03;;;;;;;7.93;5.63;;;11.80;99.90;;;;;;5049340;28;20190;-54
2022/05/05 07:35:30;;;;;;;9.85;6.70;;;11.80;99.90;;;;;;5049743;28;20075;-57
2022/05/05 07:37:57;;;;;;;11.93;6.05;;;11.80;99.90;;;;;;5049346;28;20568;-54
2022/05/05 07:40:24;;;;;;;9.88;5.32;;;11.90;99.90;;;;;;5049447;28;20083;-56
2022/05/05 07:42:50;;;;;;;11.90;5.90;;;12.00;99.90;;;;;;5049185;28;20478;-56
2022/05/05 07:45:18;;;;;;;12.48;4.97;;;12.20;99.90;;;;;;5049694;28;20084;-54
2022/05/05 07:47:45;;;;;;;9.00;4.97;;;12.40;99.90;;;;;;5049346;28;20148;-55
2022/05/05 07:50:13;;;;;;;8.18;4.72;;;12.40;99.90;;;;;;5043798;28;20719;-54
2022/05/05 07:52:40;;;;;;;7.32;4.13;;;12.50;99.90;;;;;;5047580;28;20201;-53
2022/05/05 07:55:07;;;;;;;11.55;4.03;;;12.60;99.90;;;;;;5048444;28;20144;-56
2022/05/05 07:57:47;;;;;;;7.13;5.30;;;12.70;99.90;;;;;;5048144;28;20041;-56
2022/05/05 08:00:14;;;;;;;9.85;5.20;;;12.70;99.90;;;;;;5036937;28;20496;-57
2022/05/05 08:02:41;;;;;;;12.68;6.10;;;12.60;99.90;;;;;;5048039;28;20073;-57
2022/05/05 08:05:12;;;;;;;9.30;5.10;;;12.60;99.90;;;;;;5048763;28;20053;-57
2022/05/05 08:07:43;;;;;;;6.78;4.47;;;12.70;99.90;;;;;;5048041;28;20098;-53
2022/05/05 08:10:10;;;;;;;11.82;4.28;;;12.70;99.90;;;;;;5035846;28;20076;-56
2022/05/05 08:12:37;;;;;;;7.80;4.70;;;12.80;99.90;;;;;;5045448;28;20045;-53
2022/05/05 08:15:06;;;;;;;11.88;5.10;;;12.90;99.90;;;;;;5038044;28;20049;-53
2022/05/05 08:17:33;;;;;;;8.80;4.35;;;12.90;99.90;;;;;;5047854;28;20057;-53
2022/05/05 08:20:04;;;;;;;11.55;4.95;;;13.00;99.90;;;;;;5047545;28;20049;-51
2022/05/05 08:22:31;;;;;;;6.22;3.67;;;13.00;99.90;;;;;;5048919;28;20423;-52
2022/05/05 08:30:29;;;;;;;7.32;3.50;;;12.90;99.90;;;;;;5046718;28;20163;-56
2022/05/05 08:32:56;;;;;;;10.10;4.97;;;13.00;99.90;;;;;;5049039;28;20092;-54
2022/05/05 08:35:22;;;;;;;9.93;4.75;;;13.10;99.90;;;;;;5049155;28;20136;-56
2022/05/05 08:37:50;;;;;;;4.50;3.40;;;13.10;99.90;;;;;;5049257;28;20130;-54
2022/05/05 08:40:17;;;;;;;6.90;3.83;;;13.20;99.90;;;;;;5049130;28;20131;-55
2022/05/05 08:42:45;;;;;;;6.15;4.05;;;13.20;99.90;;;;;;5049590;28;20083;-56
2022/05/05 08:45:11;;;;;;;12.18;3.80;;;13.20;99.90;;;;;;5048022;28;20052;-55
2022/05/05 08:47:38;;;;;;;6.75;3.55;;;13.20;99.90;;;;;;5049421;28;20053;-56
2022/05/05 08:50:07;;;;;;;8.48;3.92;;;13.30;99.90;;;;;;5047828;28;20044;-54
2022/05/05 08:52:43;;;;;;;6.00;3.47;;;13.30;99.90;;;;;;5048150;28;20111;-55
2022/05/05 08:55:13;;;;;;;8.57;3.53;;;13.40;99.90;;;;;;5047229;28;20236;-54
2022/05/05 08:57:41;;;;;;;6.80;3.30;;;13.50;99.90;;;;;;5049316;28;20083;-56
2022/05/05 09:00:08;;;;;;;5.05;3.33;;;13.50;99.90;;;;;;5048831;28;20083;-57
2022/05/05 09:02:36;;;;;;;6.80;3.95;;;13.60;99.90;;;;;;5049068;28;20183;-55
2022/05/05 09:05:03;;;;;;;7.25;3.97;;;13.80;99.90;;;;;;5048970;28;20080;-52
2022/05/05 09:07:49;;;;;;;4.80;3.45;;;13.90;99.90;;;;;;5048914;28;20063;-55
2022/05/05 09:10:17;;;;;;;6.22;3.60;;;14.10;99.90;;;;;;5048890;28;20080;-54
2022/05/05 09:12:57;;;;;;;7.80;3.13;;;14.20;99.90;;;;;;5047662;28;20049;-56
2022/05/05 09:15:32;;;;;;;5.15;3.17;;;14.20;99.90;;;;;;5048709;28;20554;-56
2022/05/05 09:18:12;;;;;;;7.00;4.60;;;14.20;99.90;;;;;;5049210;28;20427;-55
2022/05/05 09:20:39;;;;;;;4.55;2.95;;;14.20;99.90;;;;;;5048343;28;20045;-55
2022/05/05 09:23:30;;;;;;;5.85;3.88;;;14.30;99.90;;;;;;5048399;28;20065;-52
2022/05/05 09:25:58;;;;;;;10.60;3.95;;;14.40;99.90;;;;;;5046838;28;20064;-57
2022/05/05 09:28:35;;;;;;;10.23;3.38;;;14.60;99.90;;;;;;5048856;28;20161;-52
2022/05/05 09:31:06;;;;;;;9.15;3.65;;;14.70;99.90;;;;;;5048382;28;20475;-54
2022/05/05 09:33:33;;;;;;;8.50;3.92;;;14.60;99.90;;;;;;5047563;28;20053;-53
2022/05/05 09:36:02;;;;;;;9.90;3.85;;;14.70;99.90;;;;;;5048413;28;20065;-52
2022/05/05 09:38:53;;;;;;;16.85;3.63;;;14.70;99.90;;;;;;5048351;28;20478;-54
2022/05/05 09:41:26;;;;;;;13.02;4.50;;;14.80;99.90;;;;;;5048279;28;20051;-56
2022/05/05 09:43:54;;;;;;;14.00;4.18;;;15.00;99.90;;;;;;5048703;28;20055;-54
2022/05/05 09:46:26;;;;;;;6.28;3.33;;;15.00;99.90;;;;;;5048324;28;20077;-56
2022/05/05 09:48:53;;;;;;;9.57;2.90;;;15.10;99.90;;;;;;5048214;28;20049;-56
2022/05/05 09:51:20;;;;;;;7.60;3.03;;;15.20;99.90;;;;;;5047222;28;20075;-53
2022/05/05 09:59:24;;;;;;;5.72;3.00;;;15.30;99.90;;;;;;5043095;28;20554;-54
2022/05/05 10:01:51;;;;;;;;;;;15.30;99.90;;;;;;5048165;28;20480;-56
2022/05/05 10:04:19;;;;;;;7.32;2.42;;;15.80;98.40;;;;;;5046939;28;20386;-57
2022/05/05 10:06:46;;;;;;;6.32;2.40;;;15.90;99.20;;;;;;5046351;28;20128;-55
2022/05/05 10:09:14;;;;;;;6.30;2.80;;;15.80;99.60;;;;;;5046325;28;20053;-55
2022/05/05 10:11:41;;;;;;;5.28;2.25;;;15.60;99.90;;;;;;5047316;28;20080;-56
2022/05/05 10:14:12;;;;;;;3.75;2.30;;;15.80;99.90;;;;;;5048079;28;20139;-58
2022/05/05 10:16:40;;;;;;;7.25;2.90;;;15.70;97.90;;;;;;5047605;28;20049;-57
2022/05/05 10:19:07;;;;;;;6.30;2.22;;;15.60;99.90;;;;;;5047553;28;20459;-54
2022/05/05 10:21:50;;;;;;;4.72;1.95;;;15.60;99.60;;;;;;5047234;28;20106;-57
2022/05/05 10:24:22;;;;;;;3.65;2.58;;;16.10;99.50;;;;;;5047655;28;20045;-57
2022/05/05 10:26:50;;;;;;;5.97;2.30;;;16.30;98.70;;;;;;5046993;28;20076;-57
2022/05/05 10:29:33;;;;;;;5.13;2.78;;;16.40;99.60;;;;;;5045981;28;20072;-53
2022/05/05 10:32:12;;;;;;;7.35;2.40;;;16.30;97.60;;;;;;5047401;28;20049;-54
2022/05/05 10:34:40;;;;;;;6.93;2.28;;;16.10;98.70;;;;;;5043992;28;20711;-56
2022/05/05 10:37:13;;;;;;;8.30;4.03;;;16.00;99.90;;;;;;5027573;28;20049;-55
2022/05/05 10:39:43;;;;;;;3.58;2.50;;;15.90;98.20;;;;;;5043815;28;20100;-56
2022/05/05 10:42:45;;;;;;;4.43;2.53;;;15.60;97.80;;;;;;5047112;28;20049;-56
2022/05/05 10:45:32;;;;;;;4.47;2.72;;;15.50;98.70;;;;;;5046489;28;20053;-56
2022/05/05 10:47:59;;;;;;;5.28;2.33;;;15.60;98.30;;;;;;5047313;28;20061;-56
2022/05/05 10:50:50;;;;;;;4.70;2.00;;;15.80;99.90;;;;;;5047149;28;20139;-55
2022/05/05 10:53:27;;;;;;;6.90;2.70;;;16.00;98.30;;;;;;5047066;28;20048;-56
2022/05/05 10:55:54;;;;;;;13.32;3.17;;;16.10;97.60;;;;;;5047137;28;20167;-55
2022/05/05 10:59:01;;;;;;;5.70;2.47;;;16.30;99.30;;;;;;5045008;28;20116;-55
2022/05/05 11:01:30;;;;;;;6.57;2.33;;;16.40;96.70;;;;;;5046912;28;20053;-56
2022/05/05 11:04:17;;;;;;;4.88;2.38;;;16.40;97.60;;;;;;5045733;28;20088;-55
2022/05/05 11:06:45;;;;;;;3.25;2.00;;;16.20;96.80;;;;;;5047370;28;20133;-56
2022/05/05 11:09:30;;;;;;;5.15;2.00;;;15.90;97.10;;;;;;5046795;28;20412;-55
2022/05/05 11:12:16;;;;;;;7.53;3.47;;;16.10;96.90;;;;;;5047016;28;20683;-55
2022/05/05 11:23:47;;;;;;;5.47;2.55;;;16.00;97.70;;;;;;5047077;28;20057;-56
2022/05/05 11:26:17;;;;;;;4.32;2.67;;;16.30;96.90;;;;;;5046873;28;20103;-54
2022/05/05 11:28:45;;;;;;;4.78;2.50;;;16.40;97.50;;;;;;5044948;28;20049;-58
2022/05/05 11:31:17;;;;;;;3.97;2.10;;;16.60;97.80;;;;;;5046228;28;20426;-56
2022/05/05 11:33:53;;;;;;;3.30;2.53;;;16.70;96.80;;;;;;5046962;28;20132;-56
2022/05/05 11:36:21;;;;;;;6.28;2.38;;;16.70;95.00;;;;;;5046744;28;20045;-56
2022/05/05 11:38:48;;;;;;;9.57;2.88;;;16.60;97.70;;;;;;5045516;28;20416;-55
2022/05/05 11:41:21;;;;;;;2.95;2.33;;;16.90;98.40;;;;;;5046093;28;20076;-56
2022/05/05 11:46:33;;;;;;;4.90;2.70;;;17.10;97.40;;;;;;5049345;28;20072;-58
2022/05/05 11:49:00;;;;;;;4.72;2.83;;;17.00;97.80;;;;;;5050292;28;20088;-55
2022/05/05 11:51:28;;;;;;;6.68;2.83;;;17.00;96.90;;;;;;5050323;28;20045;-54
2022/05/05 11:54:05;;;;;;;7.30;2.25;;;17.00;96.20;;;;;;5030628;28;20140;-56
2022/05/05 11:56:32;;;;;;;3.88;1.63;;;17.10;95.30;;;;;;5046152;28;20093;-57
2022/05/05 12:02:15;;;;;;;4.28;1.80;;;16.90;93.20;;;;;;5048581;28;20504;-57
2022/05/05 12:04:47;;;;;;;5.65;2.53;;;16.90;96.00;;;;;;5050424;28;20080;-56
2022/05/05 12:07:19;;;;;;;3.85;2.17;;;17.00;95.50;;;;;;5048403;28;20132;-51
2022/05/05 12:09:54;;;;;;;5.10;2.88;;;17.20;95.90;;;;;;5050194;28;20103;-56
2022/05/05 12:12:23;;;;;;;5.38;2.17;;;17.40;96.60;;;;;;5049546;28;20155;-58
2022/05/05 12:14:52;;;;;;;6.00;2.78;;;17.70;95.50;;;;;;5049763;28;20534;-55
2022/05/05 12:17:41;;;;;;;6.05;2.63;;;17.70;95.50;;;;;;5049672;28;20127;-56
2022/05/05 12:20:11;;;;;;;5.43;2.63;;;17.60;94.80;;;;;;5049525;28;20072;-55
2022/05/05 12:22:42;;;;;;;7.70;3.25;;;17.50;94.30;;;;;;5048164;28;20461;-51
2022/05/05 12:25:14;;;;;;;4.50;2.33;;;17.60;94.80;;;;;;5048457;28;20128;-53
2022/05/05 12:27:41;;;;;;;5.47;1.95;;;17.70;92.90;;;;;;5048702;28;20103;-55
2022/05/05 12:30:09;;;;;;;3.55;2.20;;;17.70;94.10;;;;;;5049634;28;20092;-55
2022/05/05 12:32:54;;;;;;;6.68;2.00;;;17.80;95.60;;;;;;5044257;28;20081;-56
2022/05/05 12:35:52;;;;;;;4.80;2.17;;;17.90;95.10;;;;;;5028639;28;20092;-56
2022/05/05 12:38:19;;;;;;;5.07;2.40;;;18.10;93.70;;;;;;5044199;28;20041;-55
2022/05/05 12:40:46;;;;;;;7.18;2.08;;;18.20;95.20;;;;;;5049203;28;20220;-56
2022/05/05 12:43:17;;;;;;;3.90;2.10;;;18.40;95.50;;;;;;5047589;28;20072;-57
2022/05/05 12:45:47;;;;;;;4.82;2.40;;;18.50;92.80;;;;;;5049362;28;20107;-58
2022/05/05 12:48:14;;;;;;;3.90;2.60;;;18.40;94.50;;;;;;5048915;28;20124;-54
2022/05/05 12:50:40;;;;;;;6.10;2.47;;;18.50;94.20;;;;;;5049236;28;20133;-57
2022/05/05 13:01:30;;;;;;;8.27;2.35;;;18.60;94.10;;;;;;5029056;28;20136;-56
2022/05/05 13:04:05;;;;;;;3.90;2.50;;;18.50;92.10;;;;;;5046800;28;20119;-56
2022/05/05 13:06:35;;;;;;;5.72;2.28;;;18.50;92.70;;;;;;5047910;28;20202;-55
2022/05/05 13:09:05;;;;;;;8.35;2.90;;;18.60;92.50;;;;;;5048384;28;20053;-55
2022/05/05 13:11:33;;;;;;;3.78;2.00;;;18.60;93.90;;;;;;5048803;28;20049;-56
2022/05/05 13:14:01;;;;;;;5.10;2.05;;;18.70;93.50;;;;;;5048735;28;20496;-56
2022/05/05 13:16:28;;;;;;;4.18;2.22;;;18.90;93.10;;;;;;5049088;28;20071;-55
2022/05/05 13:18:57;;;;;;;5.82;2.63;;;19.00;93.40;;;;;;5048219;28;20053;-56
2022/05/05 13:21:25;;;;;;;7.50;2.63;;;19.10;92.70;;;;;;5046675;28;20041;-55
2022/05/05 13:23:52;;;;;;;6.43;2.75;;;19.10;92.60;;;;;;5048308;28;20052;-57
2022/05/05 13:26:18;;;;;;;4.72;2.25;;;19.10;91.50;;;;;;5045662;28;20041;-55
2022/05/05 13:28:45;;;;;;;5.70;2.20;;;19.00;92.80;;;;;;5048169;28;20122;-56
2022/05/05 13:31:12;;;;;;;6.03;2.40;;;19.10;92.80;;;;;;5048527;28;20052;-55
2022/05/05 13:33:39;;;;;;;4.28;2.42;;;19.20;92.80;;;;;;5048278;28;20067;-55
2022/05/05 13:36:05;;;;;;;5.70;2.13;;;19.20;92.80;;;;;;5048375;28;20492;-59
2022/05/05 13:38:32;;;;;;;5.05;1.92;;;19.30;92.50;;;;;;5047973;28;20084;-57
2022/05/05 13:41:19;;;;;;;4.95;1.95;;;19.50;92.40;;;;;;5038693;28;20041;-57
2022/05/05 13:43:46;;;;;;;5.20;1.98;;;19.60;92.20;;;;;;5047992;28;20131;-57
2022/05/05 13:46:12;;;;;;;6.03;2.22;;;19.70;92.20;;;;;;5047231;28;20159;-57
2022/05/05 13:48:39;;;;;;;3.30;2.00;;;19.80;92.60;;;;;;5047779;28;20107;-56